Jervois, Australia
Current Conditions -  °F | °C
As of 5:00 PM on Monday 22 Dec 2014 (Local Time) from YBAS Reporting Station
Overcast Overcast  
Wind Chill: 95°   Ceiling: 8600
Heat Index: 95°   Visibility: 6mi
Dew Point: 52°   Wind: 18mph
Humidity: 23%   Direction: 220°SW
Pressure: 29.74"   Gusts: NA
Location:  22.95°S, 136.13°E
Report Text: YBAS 220800Z AUTO 22016KT 9999 // SCT075 BKN086 OVC115 35/11 Q1007
Loading
Personal Weather Stations






























Interactive Weather Map New forecast layout! Learn more

10-Day Weather Forecast

Advertisements
Track Severe Weather on mobile